createdAt,value
2022-10-06T00:01:03.626Z,85.83
2022-10-06T00:03:31.034Z,86.82
2022-10-06T00:06:02.708Z,87.02
2022-10-06T00:08:34.310Z,87.02
2022-10-06T00:11:00.956Z,86.38
2022-10-06T00:13:28.909Z,86.73
2022-10-06T00:15:55.905Z,86.27
2022-10-06T00:18:22.591Z,86.73
2022-10-06T00:21:00.882Z,86.93
2022-10-06T00:23:30.640Z,87.75
2022-10-06T00:25:57.150Z,87.94
2022-10-06T00:28:24.407Z,87.93
2022-10-06T00:30:53.406Z,87.20
2022-10-06T00:33:20.305Z,87.92
2022-10-06T00:35:47.190Z,87.52
2022-10-06T00:38:17.559Z,88.01
2022-10-06T00:40:53.163Z,88.03
2022-10-06T00:43:57.764Z,88.30
2022-10-06T00:46:52.092Z,88.86
2022-10-06T00:49:34.292Z,88.78
2022-10-06T00:52:09.570Z,88.77
2022-10-06T00:54:36.708Z,88.26
2022-10-06T00:57:05.384Z,88.35
2022-10-06T00:59:32.882Z,88.64
2022-10-06T01:02:05.498Z,88.28
2022-10-06T01:04:37.942Z,87.78
2022-10-06T01:07:04.496Z,87.47
2022-10-06T01:09:31.525Z,87.25
2022-10-06T01:12:01.164Z,86.74
2022-10-06T01:14:29.045Z,86.96
2022-10-06T01:17:04.404Z,86.71
2022-10-06T01:19:47.340Z,86.70
2022-10-06T01:22:16.296Z,86.88
2022-10-06T01:24:45.285Z,86.78
2022-10-06T01:27:13.114Z,87.19
2022-10-06T01:29:39.847Z,86.85
2022-10-06T01:32:06.663Z,86.80
2022-10-06T01:34:33.631Z,86.99
2022-10-06T01:37:00.167Z,86.78
2022-10-06T01:39:26.723Z,87.09
2022-10-06T01:41:53.212Z,87.06
2022-10-06T01:44:19.683Z,86.90
2022-10-06T01:46:46.264Z,87.26
2022-10-06T01:49:12.781Z,87.70
2022-10-06T01:51:39.498Z,87.77
2022-10-06T01:54:06.062Z,87.61
2022-10-06T01:56:33.246Z,88.69
2022-10-06T01:58:59.713Z,88.80
2022-10-06T02:01:26.308Z,89.15
2022-10-06T02:03:52.834Z,88.56
2022-10-06T02:06:19.436Z,88.11
2022-10-06T02:08:46.216Z,88.30
2022-10-06T02:11:13.624Z,88.84
2022-10-06T02:13:40.148Z,88.83
2022-10-06T02:16:08.140Z,88.45
2022-10-06T02:18:35.462Z,88.22
2022-10-06T02:21:03.306Z,88.98
2022-10-06T02:23:30.649Z,89.67
2022-10-06T02:26:01.804Z,89.83
2022-10-06T02:28:28.920Z,90.57
2022-10-06T02:31:01.233Z,90.64
2022-10-06T02:33:28.188Z,90.68
2022-10-06T02:35:56.048Z,91.40
2022-10-06T02:38:23.893Z,91.29
2022-10-06T02:40:51.515Z,91.51
2022-10-06T02:43:18.270Z,91.24
2022-10-06T02:45:53.058Z,91.45
2022-10-06T02:48:19.710Z,89.93
2022-10-06T02:50:54.422Z,90.35
2022-10-06T02:53:20.895Z,89.67
2022-10-06T02:55:47.415Z,89.84
2022-10-06T02:58:13.958Z,89.19
2022-10-06T03:00:40.657Z,88.89
2022-10-06T03:03:07.471Z,88.37
2022-10-06T03:05:34.087Z,88.06
2022-10-06T03:08:01.454Z,87.23
2022-10-06T03:10:27.975Z,86.89
2022-10-06T03:12:54.631Z,86.66
2022-10-06T03:15:21.388Z,86.56
2022-10-06T03:17:52.377Z,86.64
2022-10-06T03:20:18.880Z,86.41
2022-10-06T03:22:45.535Z,86.53
2022-10-06T03:25:11.989Z,86.54
2022-10-06T03:27:38.537Z,87.14
2022-10-06T03:30:06.552Z,87.45
2022-10-06T03:32:33.092Z,87.52
2022-10-06T03:34:59.672Z,88.48
2022-10-06T03:37:28.300Z,88.87
2022-10-06T03:39:54.753Z,89.13
2022-10-06T03:42:21.233Z,89.61
2022-10-06T03:44:47.744Z,89.70
2022-10-06T03:47:17.194Z,90.25
2022-10-06T03:49:44.191Z,90.32
2022-10-06T03:52:10.623Z,90.16
2022-10-06T03:54:37.211Z,89.86
2022-10-06T03:57:04.145Z,89.90
2022-10-06T03:59:34.101Z,89.72
2022-10-06T04:02:00.723Z,89.27
2022-10-06T04:04:27.653Z,89.52
2022-10-06T04:06:54.465Z,89.47
2022-10-06T04:09:21.119Z,89.88
2022-10-06T04:11:47.722Z,89.44
2022-10-06T04:14:16.134Z,89.79
2022-10-06T04:16:47.725Z,89.19
2022-10-06T04:19:15.873Z,90.07
2022-10-06T04:21:44.573Z,89.96
2022-10-06T04:24:12.118Z,88.25
2022-10-06T04:26:42.077Z,88.32
2022-10-06T04:29:08.714Z,88.57
2022-10-06T04:31:37.181Z,87.44
2022-10-06T04:34:04.673Z,88.14
2022-10-06T04:36:38.161Z,87.95
2022-10-06T04:39:05.873Z,87.94
2022-10-06T04:41:35.161Z,87.71
2022-10-06T04:44:02.650Z,85.89
2022-10-06T04:46:42.714Z,86.56
2022-10-06T04:49:12.379Z,85.37
2022-10-06T04:51:44.309Z,83.12
2022-10-06T04:54:10.852Z,82.63
2022-10-06T04:56:37.331Z,82.26
2022-10-06T04:59:03.842Z,81.55
2022-10-06T05:01:32.693Z,80.61
2022-10-06T05:04:01.620Z,80.95
2022-10-06T05:06:33.465Z,81.48
2022-10-06T05:09:02.405Z,81.02
2022-10-06T05:11:29.455Z,78.63
2022-10-06T05:13:57.671Z,77.43
2022-10-06T05:16:26.124Z,77.09
2022-10-06T05:18:53.242Z,78.53
2022-10-06T05:21:32.975Z,76.99
2022-10-06T05:24:00.135Z,79.41
2022-10-06T05:26:29.330Z,76.93
2022-10-06T05:28:56.161Z,78.64
2022-10-06T05:31:26.075Z,78.12
2022-10-06T05:33:52.819Z,78.20
2022-10-06T05:36:30.438Z,78.24
2022-10-06T05:38:57.937Z,78.39
2022-10-06T05:41:26.960Z,78.40
2022-10-06T05:43:53.469Z,77.95
2022-10-06T05:46:23.707Z,78.14
2022-10-06T05:48:52.258Z,78.10
2022-10-06T05:51:20.323Z,78.39
2022-10-06T05:53:48.525Z,78.11
2022-10-06T05:56:16.098Z,77.92
2022-10-06T05:58:45.754Z,78.72
2022-10-06T06:01:14.228Z,78.36
2022-10-06T06:03:42.858Z,78.55
2022-10-06T06:06:36.793Z,77.61
2022-10-06T06:09:07.124Z,78.74
2022-10-06T06:11:35.499Z,77.76
2022-10-06T06:14:07.996Z,77.88
2022-10-06T06:16:36.903Z,78.11
2022-10-06T06:19:03.480Z,78.00
2022-10-06T06:21:30.165Z,79.09
2022-10-06T06:23:57.334Z,78.41
2022-10-06T06:26:35.189Z,78.27
2022-10-06T06:29:06.129Z,78.02
2022-10-06T06:31:35.904Z,78.97
2022-10-06T06:34:04.974Z,78.66
2022-10-06T06:36:40.686Z,77.91
2022-10-06T06:39:09.717Z,78.57
2022-10-06T06:41:39.366Z,77.39
2022-10-06T06:44:08.313Z,77.98
2022-10-06T06:49:07.268Z,79.59
2022-10-06T06:51:36.499Z,78.00
2022-10-06T06:54:04.203Z,77.68
2022-10-06T06:56:38.593Z,78.39
2022-10-06T06:59:10.736Z,78.70
2022-10-06T07:01:47.182Z,80.12
2022-10-06T07:04:16.225Z,78.66
2022-10-06T07:06:47.737Z,77.88
2022-10-06T07:09:14.198Z,78.93
2022-10-06T07:11:41.039Z,78.60
2022-10-06T07:14:09.443Z,78.53
2022-10-06T07:16:54.982Z,79.23
2022-10-06T07:19:41.221Z,78.95
2022-10-06T07:22:26.489Z,78.61
2022-10-06T07:25:07.072Z,78.43
2022-10-06T07:27:35.310Z,78.54
2022-10-06T07:30:02.590Z,76.94
2022-10-06T07:32:31.177Z,77.07
2022-10-06T07:35:01.000Z,77.35
2022-10-06T07:37:31.367Z,76.39
2022-10-06T07:39:57.896Z,75.87
2022-10-06T07:42:24.645Z,75.15
2022-10-06T07:45:11.154Z,74.24
2022-10-06T07:47:38.374Z,73.89
2022-10-06T07:50:12.039Z,73.78
2022-10-06T07:52:39.317Z,73.97
2022-10-06T07:55:06.718Z,74.37
2022-10-06T07:57:35.525Z,72.03
2022-10-06T08:00:07.374Z,69.97
2022-10-06T08:02:35.827Z,70.01
2022-10-06T08:05:04.137Z,69.49
2022-10-06T08:07:30.863Z,70.70
2022-10-06T08:09:57.324Z,71.07
2022-10-06T08:12:37.647Z,70.72
2022-10-06T08:15:07.849Z,70.74
2022-10-06T08:17:36.508Z,69.48
2022-10-06T08:20:05.761Z,68.29
2022-10-06T08:22:32.495Z,67.29
2022-10-06T08:25:06.231Z,65.96
2022-10-06T08:27:35.238Z,60.36
2022-10-06T08:30:05.675Z,58.36
2022-10-06T08:32:32.852Z,56.25
2022-10-06T08:35:00.691Z,56.48
2022-10-06T08:37:27.293Z,54.65
2022-10-06T08:39:54.618Z,54.31
2022-10-06T08:42:38.529Z,53.02
2022-10-06T08:45:14.507Z,50.73
2022-10-06T08:47:50.151Z,53.51
2022-10-06T08:50:17.769Z,54.58
2022-10-06T08:52:47.961Z,55.99
2022-10-06T08:55:34.146Z,56.61
2022-10-06T08:58:34.346Z,57.69
2022-10-06T09:01:12.196Z,54.28
2022-10-06T09:03:38.860Z,51.19
2022-10-06T09:06:18.448Z,47.39
2022-10-06T09:08:53.110Z,44.96
2022-10-06T09:11:29.730Z,45.25
2022-10-06T09:14:03.827Z,42.58
2022-10-06T09:16:37.126Z,43.54
2022-10-06T09:19:18.205Z,44.67
2022-10-06T09:21:50.519Z,43.89
2022-10-06T09:24:20.378Z,40.92
2022-10-06T09:26:49.525Z,40.87
2022-10-06T09:29:16.821Z,42.16
2022-10-06T09:31:50.393Z,39.96
2022-10-06T09:34:23.256Z,38.24
2022-10-06T09:37:01.537Z,37.47
2022-10-06T09:39:33.254Z,39.21
2022-10-06T09:42:24.595Z,44.34
2022-10-06T09:44:51.334Z,42.25
2022-10-06T09:47:33.146Z,43.50
2022-10-06T09:50:11.268Z,40.58
2022-10-06T09:52:38.883Z,38.77
2022-10-06T09:55:17.737Z,35.65
2022-10-06T09:57:49.566Z,36.26
2022-10-06T10:00:27.602Z,38.62
2022-10-06T10:03:09.251Z,39.14
2022-10-06T10:05:45.764Z,36.53
2022-10-06T10:08:22.318Z,34.94
2022-10-06T10:10:50.927Z,38.42
2022-10-06T10:13:24.041Z,37.69
2022-10-06T10:16:02.781Z,38.44
2022-10-06T10:18:31.613Z,41.25
2022-10-06T10:21:00.908Z,42.12
2022-10-06T10:23:40.673Z,43.11
2022-10-06T10:26:36.058Z,45.22
2022-10-06T10:29:42.475Z,47.25
2022-10-06T10:32:12.649Z,46.29
2022-10-06T10:34:59.197Z,46.79
2022-10-06T10:37:35.612Z,46.05
2022-10-06T10:40:23.521Z,48.41
2022-10-06T10:43:04.521Z,47.08
2022-10-06T10:45:34.020Z,48.49
2022-10-06T10:48:04.916Z,49.86
2022-10-06T10:50:47.868Z,48.09
2022-10-06T10:53:42.681Z,49.23
2022-10-06T10:56:12.124Z,48.98
2022-10-06T10:58:41.910Z,49.71
2022-10-06T11:01:29.825Z,50.42
2022-10-06T11:03:58.449Z,50.56
2022-10-06T11:06:58.879Z,50.02
2022-10-06T11:09:40.775Z,46.10
2022-10-06T11:12:33.890Z,43.60
2022-10-06T11:15:07.150Z,42.27
2022-10-06T11:17:35.850Z,41.22
2022-10-06T11:20:22.745Z,40.24
2022-10-06T11:22:55.202Z,42.27
2022-10-06T11:25:44.689Z,43.42
2022-10-06T11:28:17.241Z,43.20
2022-10-06T11:30:54.730Z,41.87
2022-10-06T11:33:29.573Z,42.56
2022-10-06T11:35:56.389Z,43.78
2022-10-06T11:38:34.370Z,42.58
2022-10-06T11:41:24.121Z,41.86
2022-10-06T11:44:00.576Z,39.55
2022-10-06T11:46:35.543Z,37.22
2022-10-06T11:49:29.880Z,39.90
2022-10-06T11:52:00.095Z,40.27
2022-10-06T11:54:37.403Z,43.41
2022-10-06T11:57:29.339Z,44.43
2022-10-06T12:00:03.115Z,42.24
2022-10-06T12:02:32.676Z,42.38
2022-10-06T12:05:47.124Z,41.70
2022-10-06T12:08:01.111Z,39.85
2022-10-06T12:10:27.613Z,38.47
2022-10-06T12:13:11.362Z,39.66
2022-10-06T12:18:57.032Z,37.62
2022-10-06T12:21:50.053Z,36.90
2022-10-06T12:24:58.576Z,37.30
2022-10-06T12:27:52.546Z,35.86
2022-10-06T12:30:27.783Z,36.18
2022-10-06T12:32:58.399Z,35.57
2022-10-06T12:35:31.589Z,37.50
2022-10-06T12:38:05.844Z,36.41
2022-10-06T12:40:38.341Z,35.01
2022-10-06T12:43:22.676Z,36.74
2022-10-06T12:45:58.101Z,38.06
2022-10-06T12:48:55.571Z,40.66
2022-10-06T12:51:38.673Z,39.14
2022-10-06T12:54:11.211Z,39.60
2022-10-06T12:56:41.091Z,39.04
2022-10-06T12:59:20.342Z,40.61
2022-10-06T13:01:50.423Z,39.56
2022-10-06T13:04:49.310Z,41.32
2022-10-06T13:07:25.026Z,42.89
2022-10-06T13:10:09.758Z,41.57
2022-10-06T13:12:38.682Z,40.29
2022-10-06T13:15:41.482Z,39.59
2022-10-06T13:18:08.002Z,39.21
2022-10-06T13:20:35.552Z,39.70
2022-10-06T13:23:21.926Z,38.84
2022-10-06T13:25:52.385Z,37.28
2022-10-06T13:28:25.022Z,39.19
2022-10-06T13:30:58.300Z,38.74
2022-10-06T13:33:38.051Z,39.42
2022-10-06T13:36:05.902Z,38.72
2022-10-06T13:38:35.057Z,41.62
2022-10-06T13:41:07.793Z,41.04
2022-10-06T13:43:40.600Z,42.44
2022-10-06T13:46:16.793Z,43.26
2022-10-06T13:48:50.934Z,41.59
2022-10-06T13:51:21.507Z,41.76
2022-10-06T13:53:48.430Z,41.01
2022-10-06T13:56:33.775Z,39.38
2022-10-06T13:59:28.650Z,39.72
2022-10-06T14:01:56.538Z,38.40
2022-10-06T14:04:23.710Z,40.01
2022-10-06T14:06:56.915Z,39.27
2022-10-06T14:09:32.645Z,39.91
2022-10-06T14:12:06.316Z,41.88
2022-10-06T14:14:33.247Z,41.14
2022-10-06T14:16:59.708Z,40.60
2022-10-06T14:19:35.733Z,42.51
2022-10-06T14:22:04.471Z,41.82
2022-10-06T14:24:34.085Z,42.12
2022-10-06T14:27:02.814Z,42.44
2022-10-06T14:29:29.421Z,45.01
2022-10-06T14:31:55.959Z,42.13
2022-10-06T14:34:22.647Z,43.13
2022-10-06T14:36:55.214Z,41.92
2022-10-06T14:39:22.088Z,43.62
2022-10-06T14:41:48.654Z,42.25
2022-10-06T14:44:16.073Z,42.02
2022-10-06T14:46:47.338Z,42.75
2022-10-06T14:49:13.940Z,42.93
2022-10-06T14:51:42.584Z,45.23
2022-10-06T14:54:11.452Z,43.90
2022-10-06T14:56:40.004Z,43.31
2022-10-06T14:59:09.095Z,45.64
2022-10-06T15:01:39.888Z,42.31
2022-10-06T15:04:13.597Z,44.01
2022-10-06T15:06:59.803Z,42.77
2022-10-06T15:09:27.129Z,43.99
2022-10-06T15:11:55.639Z,44.03
2022-10-06T15:14:23.090Z,44.52
2022-10-06T15:16:50.288Z,44.03
2022-10-06T15:19:17.283Z,44.39
2022-10-06T15:21:47.198Z,47.65
2022-10-06T15:24:18.205Z,46.50
2022-10-06T15:27:04.305Z,46.30
2022-10-06T15:29:31.328Z,48.03
2022-10-06T15:31:58.698Z,47.45
2022-10-06T15:34:31.584Z,48.41
2022-10-06T15:36:59.103Z,49.77
2022-10-06T15:39:28.798Z,49.56
2022-10-06T15:41:55.583Z,49.56
2022-10-06T15:44:22.356Z,51.06
2022-10-06T15:46:54.419Z,52.53
2022-10-06T15:49:26.016Z,53.90
2022-10-06T15:52:02.826Z,54.14
2022-10-06T15:54:33.642Z,54.83
2022-10-06T15:57:01.777Z,56.47
2022-10-06T15:59:31.503Z,54.95
2022-10-06T16:02:04.664Z,54.80
2022-10-06T16:04:46.958Z,59.33
2022-10-06T16:07:16.027Z,60.78
2022-10-06T16:09:50.051Z,62.75
2022-10-06T16:12:22.190Z,62.51
2022-10-06T16:14:48.977Z,61.46
2022-10-06T16:17:15.861Z,58.97
2022-10-06T16:19:42.724Z,62.30
2022-10-06T16:22:12.417Z,63.48
2022-10-06T16:24:39.069Z,63.91
2022-10-06T16:27:06.082Z,63.22
2022-10-06T16:29:32.654Z,67.12
2022-10-06T16:31:59.260Z,66.36
2022-10-06T16:34:25.900Z,67.61
2022-10-06T16:36:52.359Z,67.89
2022-10-06T16:39:21.495Z,68.19
2022-10-06T16:41:49.043Z,70.44
2022-10-06T16:44:16.004Z,70.56
2022-10-06T16:46:42.686Z,71.34
2022-10-06T16:49:09.779Z,71.60
2022-10-06T16:51:39.270Z,71.94
2022-10-06T16:54:08.864Z,72.80
2022-10-06T16:56:40.431Z,73.33
2022-10-06T16:59:13.001Z,74.40
2022-10-06T17:01:39.563Z,74.20
2022-10-06T17:04:10.453Z,74.63
2022-10-06T17:06:51.626Z,75.59
2022-10-06T17:09:19.689Z,75.53
2022-10-06T17:11:51.970Z,75.92
2022-10-06T17:14:19.915Z,76.78
2022-10-06T17:16:48.216Z,77.73
2022-10-06T17:19:16.425Z,77.63
2022-10-06T17:21:46.803Z,78.46
2022-10-06T17:24:17.696Z,78.66
2022-10-06T17:26:47.048Z,78.74
2022-10-06T17:29:18.117Z,78.93
2022-10-06T17:31:45.510Z,79.85
2022-10-06T17:34:20.860Z,79.85
2022-10-06T17:36:49.387Z,80.13
2022-10-06T17:39:18.225Z,80.69
2022-10-06T17:41:46.190Z,80.73
2022-10-06T17:44:22.514Z,81.47
2022-10-06T17:46:51.596Z,82.09
2022-10-06T17:49:22.505Z,82.39
2022-10-06T17:51:50.537Z,83.11
2022-10-06T17:54:20.601Z,83.54
2022-10-06T17:56:49.142Z,83.23
2022-10-06T17:59:24.539Z,83.45
2022-10-06T18:01:53.869Z,83.83
2022-10-06T18:04:20.560Z,83.88
2022-10-06T18:06:47.871Z,83.98
2022-10-06T18:09:15.990Z,84.53
2022-10-06T18:11:44.423Z,84.16
2022-10-06T18:14:16.637Z,83.89
2022-10-06T18:16:56.240Z,84.31
2022-10-06T18:19:26.681Z,85.13
2022-10-06T18:22:12.766Z,85.36
2022-10-06T18:24:40.109Z,85.90
2022-10-06T18:27:07.975Z,85.96
2022-10-06T18:29:37.246Z,86.50
2022-10-06T18:32:51.106Z,86.28
2022-10-06T18:37:40.031Z,86.22
2022-10-06T18:40:09.661Z,86.67
2022-10-06T18:42:36.207Z,86.76
2022-10-06T18:45:22.232Z,86.88
2022-10-06T18:48:07.483Z,87.57
2022-10-06T18:50:35.202Z,87.59
2022-10-06T18:53:03.892Z,87.44
2022-10-06T18:55:30.569Z,87.63
2022-10-06T18:57:57.256Z,87.67
2022-10-06T19:00:25.889Z,88.08
2022-10-06T19:02:54.975Z,88.22
2022-10-06T19:05:21.549Z,88.12
2022-10-06T19:07:48.099Z,88.15
2022-10-06T19:10:15.110Z,87.29
2022-10-06T19:12:41.773Z,87.20
2022-10-06T19:15:09.895Z,87.60
2022-10-06T19:17:38.069Z,88.02
2022-10-06T19:20:05.765Z,88.20
2022-10-06T19:22:33.633Z,88.02
2022-10-06T19:25:00.807Z,88.30
2022-10-06T19:27:28.994Z,88.37
2022-10-06T19:29:56.860Z,88.92
2022-10-06T19:32:28.914Z,89.25
2022-10-06T19:34:58.690Z,88.88
2022-10-06T19:37:30.295Z,89.01
2022-10-06T19:39:56.881Z,88.89
2022-10-06T19:42:42.203Z,89.03
2022-10-06T19:45:11.563Z,88.31
2022-10-06T19:47:38.240Z,88.15
2022-10-06T19:50:11.660Z,88.20
2022-10-06T19:52:40.561Z,86.39
2022-10-06T19:55:07.306Z,86.99
2022-10-06T19:57:34.188Z,86.61
2022-10-06T20:00:01.028Z,86.43
2022-10-06T20:02:28.823Z,86.78
2022-10-06T20:04:56.013Z,87.12
2022-10-06T20:07:25.455Z,87.83
2022-10-06T20:09:52.073Z,88.01
2022-10-06T20:12:23.627Z,88.70
2022-10-06T20:14:51.383Z,88.80
2022-10-06T20:17:17.925Z,89.23
2022-10-06T20:19:46.470Z,89.51
2022-10-06T20:22:13.706Z,89.76
2022-10-06T20:24:40.185Z,90.01
2022-10-06T20:27:06.636Z,90.36
2022-10-06T20:29:34.627Z,90.54
2022-10-06T20:32:01.206Z,90.70
2022-10-06T20:34:32.469Z,91.12
2022-10-06T20:37:04.181Z,90.97
2022-10-06T20:39:51.134Z,91.28
2022-10-06T20:42:19.620Z,91.37
2022-10-06T20:44:46.243Z,91.63
2022-10-06T20:47:13.024Z,91.59
2022-10-06T20:49:40.554Z,92.01
2022-10-06T20:52:09.638Z,91.93
2022-10-06T20:54:36.216Z,92.16
2022-10-06T20:57:05.185Z,92.38
2022-10-06T20:59:35.161Z,92.44
2022-10-06T21:02:02.738Z,92.33
2022-10-06T21:04:30.275Z,92.23
2022-10-06T21:06:57.828Z,92.50
2022-10-06T21:09:24.965Z,92.44
2022-10-06T21:11:52.328Z,92.52
2022-10-06T21:14:18.902Z,92.74
2022-10-06T21:16:47.122Z,92.95
2022-10-06T21:19:18.052Z,92.70
2022-10-06T21:21:51.663Z,92.58
2022-10-06T21:24:18.362Z,93.02
2022-10-06T21:26:45.070Z,92.82
2022-10-06T21:29:14.086Z,93.19
2022-10-06T21:31:41.914Z,93.05
2022-10-06T21:34:08.534Z,93.21
2022-10-06T21:36:35.014Z,93.59
2022-10-06T21:39:01.753Z,93.68
2022-10-06T21:41:31.875Z,93.70
2022-10-06T21:44:00.925Z,93.94
2022-10-06T21:46:42.985Z,94.04
2022-10-06T21:49:11.674Z,94.21
2022-10-06T21:51:43.743Z,94.32
2022-10-06T21:54:10.455Z,94.12
2022-10-06T21:56:37.793Z,94.05
2022-10-06T21:59:04.763Z,94.33
2022-10-06T22:01:33.742Z,94.42
2022-10-06T22:04:00.846Z,94.21
2022-10-06T22:06:28.837Z,94.89
2022-10-06T22:08:56.346Z,94.47
2022-10-06T22:11:25.833Z,94.67
2022-10-06T22:14:01.222Z,94.90
2022-10-06T22:16:30.380Z,94.73
2022-10-06T22:18:57.282Z,94.88
2022-10-06T22:21:35.485Z,95.10
2022-10-06T22:24:04.690Z,94.57
2022-10-06T22:26:34.307Z,94.67
2022-10-06T22:29:00.993Z,94.99
2022-10-06T22:31:28.516Z,95.24
2022-10-06T22:34:00.287Z,95.05
2022-10-06T22:36:28.587Z,95.11
2022-10-06T22:38:56.048Z,95.19
2022-10-06T22:41:23.247Z,95.25
2022-10-06T22:43:53.083Z,95.49
2022-10-06T22:46:19.598Z,95.45
2022-10-06T22:48:46.141Z,95.57
2022-10-06T22:51:13.045Z,95.42
2022-10-06T22:53:39.475Z,95.39
2022-10-06T22:56:06.126Z,95.76
2022-10-06T22:58:32.812Z,95.58
2022-10-06T23:01:15.320Z,95.53
2022-10-06T23:03:42.263Z,95.53
2022-10-06T23:06:12.280Z,95.89
2022-10-06T23:08:39.860Z,95.57
2022-10-06T23:11:11.849Z,95.79
2022-10-06T23:13:38.814Z,95.87
2022-10-06T23:16:08.765Z,95.93
2022-10-06T23:18:37.489Z,96.09
2022-10-06T23:21:09.022Z,96.13
2022-10-06T23:23:35.876Z,95.99
2022-10-06T23:26:04.567Z,96.00
2022-10-06T23:28:31.182Z,96.05
2022-10-06T23:30:57.742Z,96.11
2022-10-06T23:33:24.318Z,96.11
2022-10-06T23:36:02.054Z,96.12
2022-10-06T23:38:28.652Z,95.99
2022-10-06T23:40:55.535Z,96.08
2022-10-06T23:43:23.774Z,96.35
2022-10-06T23:45:50.621Z,96.35
2022-10-06T23:48:17.668Z,96.14
2022-10-06T23:50:58.668Z,96.21
2022-10-06T23:53:25.974Z,96.18
2022-10-06T23:55:52.568Z,96.37
2022-10-06T23:58:20.483Z,96.19
